sensor_id;sensor_type;location;lat;lon;timestamp;P1;durP1;ratioP1;P2;durP2;ratioP2
9240;SDS011;53485;49.326;9.738;2023-05-07T00:01:03;2.70;;;2.50;;
9240;SDS011;53485;49.326;9.738;2023-05-07T00:03:30;2.33;;;2.13;;
9240;SDS011;53485;49.326;9.738;2023-05-07T00:05:56;2.33;;;2.10;;
9240;SDS011;53485;49.326;9.738;2023-05-07T00:08:23;2.60;;;2.40;;
9240;SDS011;53485;49.326;9.738;2023-05-07T00:10:49;2.60;;;2.33;;
9240;SDS011;53485;49.326;9.738;2023-05-07T00:13:16;1.97;;;1.87;;
9240;SDS011;53485;49.326;9.738;2023-05-07T00:15:42;1.93;;;1.70;;
9240;SDS011;53485;49.326;9.738;2023-05-07T00:18:09;2.23;;;1.60;;
9240;SDS011;53485;49.326;9.738;2023-05-07T00:20:36;1.80;;;1.70;;
9240;SDS011;53485;49.326;9.738;2023-05-07T00:23:02;1.57;;;1.47;;
9240;SDS011;53485;49.326;9.738;2023-05-07T00:25:29;1.50;;;1.40;;
9240;SDS011;53485;49.326;9.738;2023-05-07T00:27:56;4.03;;;1.60;;
9240;SDS011;53485;49.326;9.738;2023-05-07T00:30:22;2.53;;;1.90;;
9240;SDS011;53485;49.326;9.738;2023-05-07T00:32:49;2.13;;;2.03;;
9240;SDS011;53485;49.326;9.738;2023-05-07T00:35:15;2.83;;;2.23;;
9240;SDS011;53485;49.326;9.738;2023-05-07T00:37:42;1.87;;;1.30;;
9240;SDS011;53485;49.326;9.738;2023-05-07T00:40:09;2.53;;;1.53;;
9240;SDS011;53485;49.326;9.738;2023-05-07T00:42:36;2.17;;;1.43;;
9240;SDS011;53485;49.326;9.738;2023-05-07T00:45:02;2.37;;;1.63;;
9240;SDS011;53485;49.326;9.738;2023-05-07T00:47:29;1.47;;;1.20;;
9240;SDS011;53485;49.326;9.738;2023-05-07T00:49:55;3.43;;;1.70;;
9240;SDS011;53485;49.326;9.738;2023-05-07T00:52:21;1.93;;;1.40;;
9240;SDS011;53485;49.326;9.738;2023-05-07T00:54:47;3.73;;;1.30;;
9240;SDS011;53485;49.326;9.738;2023-05-07T00:57:14;2.50;;;1.53;;
9240;SDS011;53485;49.326;9.738;2023-05-07T00:59:40;1.50;;;1.20;;
9240;SDS011;53485;49.326;9.738;2023-05-07T01:02:07;3.20;;;1.73;;
9240;SDS011;53485;49.326;9.738;2023-05-07T01:04:33;1.70;;;1.33;;
9240;SDS011;53485;49.326;9.738;2023-05-07T01:06:59;1.30;;;1.20;;
9240;SDS011;53485;49.326;9.738;2023-05-07T01:09:26;2.73;;;1.50;;
9240;SDS011;53485;49.326;9.738;2023-05-07T01:11:52;2.40;;;1.20;;
9240;SDS011;53485;49.326;9.738;2023-05-07T01:14:18;2.60;;;1.60;;
9240;SDS011;53485;49.326;9.738;2023-05-07T01:16:44;1.60;;;1.30;;
9240;SDS011;53485;49.326;9.738;2023-05-07T01:19:11;2.50;;;1.40;;
9240;SDS011;53485;49.326;9.738;2023-05-07T01:21:36;2.97;;;1.10;;
9240;SDS011;53485;49.326;9.738;2023-05-07T01:24:03;1.20;;;1.10;;
9240;SDS011;53485;49.326;9.738;2023-05-07T01:26:30;1.10;;;1.00;;
9240;SDS011;53485;49.326;9.738;2023-05-07T01:28:55;1.13;;;1.03;;
9240;SDS011;53485;49.326;9.738;2023-05-07T01:31:22;2.10;;;1.10;;
9240;SDS011;53485;49.326;9.738;2023-05-07T01:33:48;1.83;;;1.00;;
9240;SDS011;53485;49.326;9.738;2023-05-07T01:36:15;1.10;;;1.00;;
9240;SDS011;53485;49.326;9.738;2023-05-07T01:38:41;1.10;;;1.00;;
9240;SDS011;53485;49.326;9.738;2023-05-07T01:41:07;0.80;;;0.80;;
9240;SDS011;53485;49.326;9.738;2023-05-07T01:43:34;1.20;;;1.03;;
9240;SDS011;53485;49.326;9.738;2023-05-07T01:46:00;2.80;;;1.10;;
9240;SDS011;53485;49.326;9.738;2023-05-07T01:48:26;1.37;;;1.00;;
9240;SDS011;53485;49.326;9.738;2023-05-07T01:50:53;1.30;;;1.00;;
9240;SDS011;53485;49.326;9.738;2023-05-07T01:53:19;1.00;;;1.00;;
9240;SDS011;53485;49.326;9.738;2023-05-07T01:55:46;1.83;;;1.40;;
9240;SDS011;53485;49.326;9.738;2023-05-07T01:58:12;1.33;;;1.23;;
9240;SDS011;53485;49.326;9.738;2023-05-07T02:00:39;2.03;;;1.00;;
9240;SDS011;53485;49.326;9.738;2023-05-07T02:03:05;2.17;;;1.17;;
9240;SDS011;53485;49.326;9.738;2023-05-07T02:05:31;1.07;;;0.97;;
9240;SDS011;53485;49.326;9.738;2023-05-07T02:07:58;1.70;;;1.60;;
9240;SDS011;53485;49.326;9.738;2023-05-07T02:10:25;0.90;;;0.90;;
9240;SDS011;53485;49.326;9.738;2023-05-07T02:12:51;1.87;;;1.60;;
9240;SDS011;53485;49.326;9.738;2023-05-07T02:15:18;1.50;;;1.37;;
9240;SDS011;53485;49.326;9.738;2023-05-07T02:20:17;2.30;;;1.60;;
9240;SDS011;53485;49.326;9.738;2023-05-07T02:22:44;2.50;;;2.20;;
9240;SDS011;53485;49.326;9.738;2023-05-07T02:25:10;3.07;;;2.10;;
9240;SDS011;53485;49.326;9.738;2023-05-07T02:27:37;3.80;;;2.70;;
9240;SDS011;53485;49.326;9.738;2023-05-07T02:30:04;2.00;;;1.90;;
9240;SDS011;53485;49.326;9.738;2023-05-07T02:32:31;1.73;;;1.63;;
9240;SDS011;53485;49.326;9.738;2023-05-07T02:34:57;2.23;;;2.00;;
9240;SDS011;53485;49.326;9.738;2023-05-07T02:37:24;2.57;;;2.37;;
9240;SDS011;53485;49.326;9.738;2023-05-07T02:39:51;2.50;;;2.30;;
9240;SDS011;53485;49.326;9.738;2023-05-07T02:42:17;2.97;;;2.23;;
9240;SDS011;53485;49.326;9.738;2023-05-07T02:44:44;3.73;;;2.57;;
9240;SDS011;53485;49.326;9.738;2023-05-07T02:47:10;2.60;;;2.40;;
9240;SDS011;53485;49.326;9.738;2023-05-07T02:49:37;3.10;;;2.47;;
9240;SDS011;53485;49.326;9.738;2023-05-07T02:52:04;4.27;;;2.30;;
9240;SDS011;53485;49.326;9.738;2023-05-07T02:54:30;3.30;;;2.13;;
9240;SDS011;53485;49.326;9.738;2023-05-07T02:56:56;2.43;;;2.23;;
9240;SDS011;53485;49.326;9.738;2023-05-07T02:59:23;2.50;;;2.40;;
9240;SDS011;53485;49.326;9.738;2023-05-07T03:01:49;3.67;;;2.73;;
9240;SDS011;53485;49.326;9.738;2023-05-07T03:04:16;2.50;;;2.30;;
9240;SDS011;53485;49.326;9.738;2023-05-07T03:06:43;2.40;;;2.20;;
9240;SDS011;53485;49.326;9.738;2023-05-07T03:09:09;2.23;;;2.13;;
9240;SDS011;53485;49.326;9.738;2023-05-07T03:11:35;2.53;;;2.43;;
9240;SDS011;53485;49.326;9.738;2023-05-07T03:14:02;3.33;;;3.00;;
9240;SDS011;53485;49.326;9.738;2023-05-07T03:16:28;3.60;;;2.93;;
9240;SDS011;53485;49.326;9.738;2023-05-07T03:18:54;3.40;;;3.20;;
9240;SDS011;53485;49.326;9.738;2023-05-07T03:21:21;3.70;;;3.27;;
9240;SDS011;53485;49.326;9.738;2023-05-07T03:23:47;4.10;;;3.70;;
9240;SDS011;53485;49.326;9.738;2023-05-07T03:26:14;3.60;;;3.30;;
9240;SDS011;53485;49.326;9.738;2023-05-07T03:28:41;4.17;;;3.83;;
9240;SDS011;53485;49.326;9.738;2023-05-07T03:31:07;3.87;;;3.57;;
9240;SDS011;53485;49.326;9.738;2023-05-07T03:33:34;4.07;;;3.77;;
9240;SDS011;53485;49.326;9.738;2023-05-07T03:36:01;3.80;;;3.50;;
9240;SDS011;53485;49.326;9.738;2023-05-07T03:38:27;4.03;;;3.67;;
9240;SDS011;53485;49.326;9.738;2023-05-07T03:40:54;4.67;;;4.17;;
9240;SDS011;53485;49.326;9.738;2023-05-07T03:43:20;9.73;;;4.40;;
9240;SDS011;53485;49.326;9.738;2023-05-07T03:45:47;4.47;;;4.03;;
9240;SDS011;53485;49.326;9.738;2023-05-07T03:48:14;4.13;;;3.73;;
9240;SDS011;53485;49.326;9.738;2023-05-07T03:50:40;4.70;;;3.50;;
9240;SDS011;53485;49.326;9.738;2023-05-07T03:53:07;3.60;;;3.30;;
9240;SDS011;53485;49.326;9.738;2023-05-07T03:55:33;5.40;;;4.10;;
9240;SDS011;53485;49.326;9.738;2023-05-07T03:58:00;3.57;;;3.33;;
9240;SDS011;53485;49.326;9.738;2023-05-07T04:00:27;4.03;;;3.67;;
9240;SDS011;53485;49.326;9.738;2023-05-07T04:02:53;3.77;;;3.47;;
9240;SDS011;53485;49.326;9.738;2023-05-07T04:05:20;5.83;;;3.00;;
9240;SDS011;53485;49.326;9.738;2023-05-07T04:07:46;4.23;;;3.93;;
9240;SDS011;53485;49.326;9.738;2023-05-07T04:10:13;7.33;;;3.67;;
9240;SDS011;53485;49.326;9.738;2023-05-07T04:12:40;3.50;;;3.20;;
9240;SDS011;53485;49.326;9.738;2023-05-07T04:15:07;4.47;;;3.10;;
9240;SDS011;53485;49.326;9.738;2023-05-07T04:17:33;4.50;;;3.40;;
9240;SDS011;53485;49.326;9.738;2023-05-07T04:20:00;3.07;;;2.87;;
9240;SDS011;53485;49.326;9.738;2023-05-07T04:22:26;4.27;;;3.87;;
9240;SDS011;53485;49.326;9.738;2023-05-07T04:24:53;3.83;;;3.53;;
9240;SDS011;53485;49.326;9.738;2023-05-07T04:27:20;4.90;;;4.00;;
9240;SDS011;53485;49.326;9.738;2023-05-07T04:29:46;3.47;;;3.27;;
9240;SDS011;53485;49.326;9.738;2023-05-07T04:32:13;3.93;;;3.63;;
9240;SDS011;53485;49.326;9.738;2023-05-07T04:34:39;3.80;;;3.50;;
9240;SDS011;53485;49.326;9.738;2023-05-07T04:37:06;3.87;;;3.57;;
9240;SDS011;53485;49.326;9.738;2023-05-07T04:39:32;3.90;;;3.50;;
9240;SDS011;53485;49.326;9.738;2023-05-07T04:41:59;3.97;;;3.30;;
9240;SDS011;53485;49.326;9.738;2023-05-07T04:44:25;4.30;;;3.90;;
9240;SDS011;53485;49.326;9.738;2023-05-07T04:46:52;4.23;;;3.83;;
9240;SDS011;53485;49.326;9.738;2023-05-07T04:49:18;3.63;;;3.33;;
9240;SDS011;53485;49.326;9.738;2023-05-07T04:51:45;3.93;;;3.63;;
9240;SDS011;53485;49.326;9.738;2023-05-07T04:54:12;6.00;;;3.50;;
9240;SDS011;53485;49.326;9.738;2023-05-07T04:56:38;3.77;;;3.57;;
9240;SDS011;53485;49.326;9.738;2023-05-07T04:59:05;3.70;;;3.40;;
9240;SDS011;53485;49.326;9.738;2023-05-07T05:01:31;3.87;;;3.57;;
9240;SDS011;53485;49.326;9.738;2023-05-07T05:03:58;4.67;;;4.10;;
9240;SDS011;53485;49.326;9.738;2023-05-07T05:06:25;3.50;;;3.30;;
9240;SDS011;53485;49.326;9.738;2023-05-07T05:08:51;5.73;;;3.57;;
9240;SDS011;53485;49.326;9.738;2023-05-07T05:11:18;5.77;;;3.83;;
9240;SDS011;53485;49.326;9.738;2023-05-07T05:13:45;5.50;;;4.03;;
9240;SDS011;53485;49.326;9.738;2023-05-07T05:16:11;3.50;;;3.20;;
9240;SDS011;53485;49.326;9.738;2023-05-07T05:18:38;3.07;;;2.87;;
9240;SDS011;53485;49.326;9.738;2023-05-07T05:21:04;3.33;;;3.10;;
9240;SDS011;53485;49.326;9.738;2023-05-07T05:23:31;3.80;;;3.50;;
9240;SDS011;53485;49.326;9.738;2023-05-07T05:25:58;3.60;;;3.30;;
9240;SDS011;53485;49.326;9.738;2023-05-07T05:28:24;3.27;;;2.97;;
9240;SDS011;53485;49.326;9.738;2023-05-07T05:30:51;5.60;;;3.37;;
9240;SDS011;53485;49.326;9.738;2023-05-07T05:33:17;3.10;;;2.80;;
9240;SDS011;53485;49.326;9.738;2023-05-07T05:35:44;3.10;;;2.90;;
9240;SDS011;53485;49.326;9.738;2023-05-07T05:38:10;2.77;;;2.57;;
9240;SDS011;53485;49.326;9.738;2023-05-07T05:40:37;4.17;;;2.70;;
9240;SDS011;53485;49.326;9.738;2023-05-07T05:43:04;2.87;;;2.47;;
9240;SDS011;53485;49.326;9.738;2023-05-07T05:45:30;2.60;;;2.40;;
9240;SDS011;53485;49.326;9.738;2023-05-07T05:47:57;3.20;;;2.57;;
9240;SDS011;53485;49.326;9.738;2023-05-07T05:50:23;2.77;;;2.33;;
9240;SDS011;53485;49.326;9.738;2023-05-07T05:52:50;3.87;;;2.70;;
9240;SDS011;53485;49.326;9.738;2023-05-07T05:55:17;3.03;;;2.83;;
9240;SDS011;53485;49.326;9.738;2023-05-07T05:57:43;2.70;;;2.50;;
9240;SDS011;53485;49.326;9.738;2023-05-07T06:00:10;2.80;;;2.30;;
9240;SDS011;53485;49.326;9.738;2023-05-07T06:02:37;3.53;;;3.23;;
9240;SDS011;53485;49.326;9.738;2023-05-07T06:05:04;3.90;;;2.90;;
9240;SDS011;53485;49.326;9.738;2023-05-07T06:07:30;3.53;;;2.90;;
9240;SDS011;53485;49.326;9.738;2023-05-07T06:09:57;2.43;;;2.33;;
9240;SDS011;53485;49.326;9.738;2023-05-07T06:12:24;2.70;;;2.50;;
9240;SDS011;53485;49.326;9.738;2023-05-07T06:14:50;2.10;;;1.90;;
9240;SDS011;53485;49.326;9.738;2023-05-07T06:17:17;3.63;;;2.90;;
9240;SDS011;53485;49.326;9.738;2023-05-07T06:19:43;3.53;;;3.23;;
9240;SDS011;53485;49.326;9.738;2023-05-07T06:22:10;5.63;;;3.17;;
9240;SDS011;53485;49.326;9.738;2023-05-07T06:24:37;2.00;;;1.90;;
9240;SDS011;53485;49.326;9.738;2023-05-07T06:27:03;6.03;;;2.90;;
9240;SDS011;53485;49.326;9.738;2023-05-07T06:29:30;6.90;;;3.40;;
9240;SDS011;53485;49.326;9.738;2023-05-07T06:31:56;3.63;;;3.00;;
9240;SDS011;53485;49.326;9.738;2023-05-07T06:34:23;2.73;;;2.50;;
9240;SDS011;53485;49.326;9.738;2023-05-07T06:36:49;3.30;;;2.33;;
9240;SDS011;53485;49.326;9.738;2023-05-07T06:39:16;4.60;;;2.60;;
9240;SDS011;53485;49.326;9.738;2023-05-07T06:41:43;3.03;;;1.93;;
9240;SDS011;53485;49.326;9.738;2023-05-07T06:44:09;4.53;;;2.30;;
9240;SDS011;53485;49.326;9.738;2023-05-07T06:46:36;3.47;;;2.63;;
9240;SDS011;53485;49.326;9.738;2023-05-07T06:49:03;3.23;;;2.67;;
9240;SDS011;53485;49.326;9.738;2023-05-07T06:51:29;2.67;;;2.47;;
9240;SDS011;53485;49.326;9.738;2023-05-07T06:53:56;2.83;;;2.63;;
9240;SDS011;53485;49.326;9.738;2023-05-07T06:56:22;2.73;;;2.30;;
9240;SDS011;53485;49.326;9.738;2023-05-07T06:58:49;2.03;;;1.80;;
9240;SDS011;53485;49.326;9.738;2023-05-07T07:01:15;2.90;;;2.67;;
9240;SDS011;53485;49.326;9.738;2023-05-07T07:03:42;3.50;;;2.90;;
9240;SDS011;53485;49.326;9.738;2023-05-07T07:06:09;8.57;;;4.10;;
9240;SDS011;53485;49.326;9.738;2023-05-07T07:08:35;2.53;;;2.33;;
9240;SDS011;53485;49.326;9.738;2023-05-07T07:11:02;2.40;;;2.20;;
9240;SDS011;53485;49.326;9.738;2023-05-07T07:13:28;1.90;;;1.80;;
9240;SDS011;53485;49.326;9.738;2023-05-07T07:15:55;1.93;;;1.83;;
9240;SDS011;53485;49.326;9.738;2023-05-07T07:18:21;3.13;;;2.50;;
9240;SDS011;53485;49.326;9.738;2023-05-07T07:20:48;2.30;;;2.20;;
9240;SDS011;53485;49.326;9.738;2023-05-07T07:23:14;3.47;;;2.23;;
9240;SDS011;53485;49.326;9.738;2023-05-07T07:25:41;3.00;;;2.17;;
9240;SDS011;53485;49.326;9.738;2023-05-07T07:28:08;4.03;;;2.70;;
9240;SDS011;53485;49.326;9.738;2023-05-07T07:30:34;2.30;;;2.10;;
9240;SDS011;53485;49.326;9.738;2023-05-07T07:33:01;3.53;;;2.50;;
9240;SDS011;53485;49.326;9.738;2023-05-07T07:35:29;2.60;;;2.40;;
9240;SDS011;53485;49.326;9.738;2023-05-07T07:37:55;2.67;;;2.40;;
9240;SDS011;53485;49.326;9.738;2023-05-07T07:40:21;2.60;;;2.40;;
9240;SDS011;53485;49.326;9.738;2023-05-07T07:42:47;2.47;;;2.27;;
9240;SDS011;53485;49.326;9.738;2023-05-07T07:45:14;2.33;;;2.13;;
9240;SDS011;53485;49.326;9.738;2023-05-07T07:47:41;2.40;;;2.20;;
9240;SDS011;53485;49.326;9.738;2023-05-07T07:50:08;7.90;;;2.50;;
9240;SDS011;53485;49.326;9.738;2023-05-07T07:52:34;2.27;;;2.03;;
9240;SDS011;53485;49.326;9.738;2023-05-07T07:55:01;2.20;;;2.00;;
9240;SDS011;53485;49.326;9.738;2023-05-07T07:57:27;2.67;;;2.47;;
9240;SDS011;53485;49.326;9.738;2023-05-07T07:59:54;2.73;;;2.53;;
9240;SDS011;53485;49.326;9.738;2023-05-07T08:02:21;2.40;;;2.20;;
9240;SDS011;53485;49.326;9.738;2023-05-07T08:04:47;2.93;;;2.70;;
9240;SDS011;53485;49.326;9.738;2023-05-07T08:07:14;2.73;;;2.53;;
9240;SDS011;53485;49.326;9.738;2023-05-07T08:09:40;2.63;;;2.43;;
9240;SDS011;53485;49.326;9.738;2023-05-07T08:12:07;2.53;;;2.33;;
9240;SDS011;53485;49.326;9.738;2023-05-07T08:14:34;2.73;;;2.53;;
9240;SDS011;53485;49.326;9.738;2023-05-07T08:17:00;4.10;;;2.40;;
9240;SDS011;53485;49.326;9.738;2023-05-07T08:19:26;2.60;;;2.40;;
9240;SDS011;53485;49.326;9.738;2023-05-07T08:21:52;2.53;;;2.33;;
9240;SDS011;53485;49.326;9.738;2023-05-07T08:24:19;3.20;;;3.00;;
9240;SDS011;53485;49.326;9.738;2023-05-07T08:26:46;3.33;;;2.33;;
9240;SDS011;53485;49.326;9.738;2023-05-07T08:29:12;4.40;;;2.23;;
9240;SDS011;53485;49.326;9.738;2023-05-07T08:31:39;2.60;;;2.30;;
9240;SDS011;53485;49.326;9.738;2023-05-07T08:34:06;2.93;;;2.73;;
9240;SDS011;53485;49.326;9.738;2023-05-07T08:36:32;2.40;;;2.23;;
9240;SDS011;53485;49.326;9.738;2023-05-07T08:38:59;2.93;;;2.80;;
9240;SDS011;53485;49.326;9.738;2023-05-07T08:41:25;2.23;;;1.87;;
9240;SDS011;53485;49.326;9.738;2023-05-07T08:43:52;2.35;;;2.15;;
9240;SDS011;53485;49.326;9.738;2023-05-07T08:46:19;2.28;;;1.50;;
9240;SDS011;53485;49.326;9.738;2023-05-07T08:48:48;2.08;;;1.98;;
9240;SDS011;53485;49.326;9.738;2023-05-07T08:51:16;3.35;;;1.70;;
9240;SDS011;53485;49.326;9.738;2023-05-07T08:53:41;1.98;;;1.77;;
9240;SDS011;53485;49.326;9.738;2023-05-07T08:56:08;1.70;;;1.55;;
9240;SDS011;53485;49.326;9.738;2023-05-07T08:58:35;2.47;;;1.23;;
9240;SDS011;53485;49.326;9.738;2023-05-07T09:01:03;1.65;;;1.55;;
9240;SDS011;53485;49.326;9.738;2023-05-07T09:03:28;2.12;;;1.50;;
9240;SDS011;53485;49.326;9.738;2023-05-07T09:05:55;2.78;;;1.80;;
9240;SDS011;53485;49.326;9.738;2023-05-07T09:08:26;2.17;;;1.98;;
9240;SDS011;53485;49.326;9.738;2023-05-07T09:10:52;2.13;;;1.97;;
9240;SDS011;53485;49.326;9.738;2023-05-07T09:13:18;1.70;;;1.37;;
9240;SDS011;53485;49.326;9.738;2023-05-07T09:15:44;1.50;;;1.40;;
9240;SDS011;53485;49.326;9.738;2023-05-07T09:18:12;3.13;;;1.40;;
9240;SDS011;53485;49.326;9.738;2023-05-07T09:20:37;1.90;;;1.43;;
9240;SDS011;53485;49.326;9.738;2023-05-07T09:23:03;1.87;;;1.50;;
9240;SDS011;53485;49.326;9.738;2023-05-07T09:25:30;3.93;;;1.40;;
9240;SDS011;53485;49.326;9.738;2023-05-07T09:27:56;1.57;;;1.47;;
9240;SDS011;53485;49.326;9.738;2023-05-07T09:30:23;1.03;;;1.03;;
9240;SDS011;53485;49.326;9.738;2023-05-07T09:32:49;1.77;;;1.67;;
9240;SDS011;53485;49.326;9.738;2023-05-07T09:35:16;3.13;;;2.10;;
9240;SDS011;53485;49.326;9.738;2023-05-07T09:37:41;1.27;;;1.17;;
9240;SDS011;53485;49.326;9.738;2023-05-07T09:40:19;2.50;;;1.40;;
9240;SDS011;53485;49.326;9.738;2023-05-07T09:42:35;1.30;;;1.20;;
9240;SDS011;53485;49.326;9.738;2023-05-07T09:45:04;1.50;;;1.40;;
9240;SDS011;53485;49.326;9.738;2023-05-07T09:47:30;1.77;;;1.10;;
9240;SDS011;53485;49.326;9.738;2023-05-07T09:49:57;0.82;;;0.82;;
9240;SDS011;53485;49.326;9.738;2023-05-07T09:52:23;2.45;;;1.20;;
9240;SDS011;53485;49.326;9.738;2023-05-07T09:54:50;1.25;;;1.15;;
9240;SDS011;53485;49.326;9.738;2023-05-07T09:57:17;1.20;;;1.10;;
9240;SDS011;53485;49.326;9.738;2023-05-07T09:59:44;1.58;;;1.00;;
9240;SDS011;53485;49.326;9.738;2023-05-07T10:02:11;0.88;;;0.80;;
9240;SDS011;53485;49.326;9.738;2023-05-07T10:04:38;1.52;;;1.10;;
9240;SDS011;53485;49.326;9.738;2023-05-07T10:07:04;0.80;;;0.80;;
9240;SDS011;53485;49.326;9.738;2023-05-07T10:09:31;1.45;;;1.10;;
9240;SDS011;53485;49.326;9.738;2023-05-07T10:11:58;0.80;;;0.80;;
9240;SDS011;53485;49.326;9.738;2023-05-07T10:14:25;1.00;;;0.90;;
9240;SDS011;53485;49.326;9.738;2023-05-07T10:16:52;1.10;;;1.00;;
9240;SDS011;53485;49.326;9.738;2023-05-07T10:19:19;1.10;;;0.98;;
9240;SDS011;53485;49.326;9.738;2023-05-07T10:21:51;1.60;;;1.05;;
9240;SDS011;53485;49.326;9.738;2023-05-07T10:24:20;1.30;;;0.90;;
9240;SDS011;53485;49.326;9.738;2023-05-07T10:26:47;1.17;;;0.90;;
9240;SDS011;53485;49.326;9.738;2023-05-07T10:29:15;1.10;;;1.00;;
9240;SDS011;53485;49.326;9.738;2023-05-07T10:31:48;1.50;;;1.00;;
9240;SDS011;53485;49.326;9.738;2023-05-07T10:34:11;1.20;;;0.90;;
9240;SDS011;53485;49.326;9.738;2023-05-07T10:36:37;0.90;;;0.80;;
9240;SDS011;53485;49.326;9.738;2023-05-07T10:39:03;1.85;;;1.00;;
9240;SDS011;53485;49.326;9.738;2023-05-07T10:41:30;1.00;;;1.00;;
9240;SDS011;53485;49.326;9.738;2023-05-07T10:43:57;1.33;;;1.23;;
9240;SDS011;53485;49.326;9.738;2023-05-07T10:46:24;1.40;;;0.75;;
9240;SDS011;53485;49.326;9.738;2023-05-07T10:51:24;2.12;;;1.08;;
9240;SDS011;53485;49.326;9.738;2023-05-07T10:56:24;1.20;;;1.10;;
9240;SDS011;53485;49.326;9.738;2023-05-07T10:58:51;2.00;;;1.23;;
9240;SDS011;53485;49.326;9.738;2023-05-07T11:01:49;1.12;;;1.10;;
9240;SDS011;53485;49.326;9.738;2023-05-07T11:04:19;2.87;;;1.05;;
9240;SDS011;53485;49.326;9.738;2023-05-07T11:06:28;1.92;;;0.90;;
9240;SDS011;53485;49.326;9.738;2023-05-07T11:08:55;1.15;;;1.05;;
9240;SDS011;53485;49.326;9.738;2023-05-07T11:13:55;1.50;;;1.30;;
9240;SDS011;53485;49.326;9.738;2023-05-07T11:16:23;1.35;;;1.25;;
9240;SDS011;53485;49.326;9.738;2023-05-07T11:18:50;1.15;;;1.05;;
9240;SDS011;53485;49.326;9.738;2023-05-07T11:21:38;1.20;;;1.10;;
9240;SDS011;53485;49.326;9.738;2023-05-07T11:24:04;1.30;;;1.20;;
9240;SDS011;53485;49.326;9.738;2023-05-07T11:26:31;1.60;;;1.42;;
9240;SDS011;53485;49.326;9.738;2023-05-07T11:28:57;1.50;;;1.40;;
9240;SDS011;53485;49.326;9.738;2023-05-07T11:31:25;1.20;;;1.10;;
9240;SDS011;53485;49.326;9.738;2023-05-07T11:33:50;1.63;;;1.10;;
9240;SDS011;53485;49.326;9.738;2023-05-07T11:36:16;1.53;;;1.00;;
9240;SDS011;53485;49.326;9.738;2023-05-07T11:38:43;1.13;;;1.07;;
9240;SDS011;53485;49.326;9.738;2023-05-07T11:41:09;1.17;;;1.10;;
9240;SDS011;53485;49.326;9.738;2023-05-07T11:43:35;0.97;;;0.90;;
9240;SDS011;53485;49.326;9.738;2023-05-07T11:46:05;1.23;;;1.17;;
9240;SDS011;53485;49.326;9.738;2023-05-07T11:48:30;1.30;;;1.00;;
9240;SDS011;53485;49.326;9.738;2023-05-07T11:51:00;1.30;;;1.13;;
9240;SDS011;53485;49.326;9.738;2023-05-07T11:53:26;1.07;;;1.00;;
9240;SDS011;53485;49.326;9.738;2023-05-07T11:55:53;0.80;;;0.80;;
9240;SDS011;53485;49.326;9.738;2023-05-07T11:58:20;1.27;;;1.00;;
9240;SDS011;53485;49.326;9.738;2023-05-07T12:00:49;1.53;;;1.03;;
9240;SDS011;53485;49.326;9.738;2023-05-07T12:03:15;0.95;;;0.80;;
9240;SDS011;53485;49.326;9.738;2023-05-07T12:05:42;1.08;;;0.98;;
9240;SDS011;53485;49.326;9.738;2023-05-07T12:08:13;0.98;;;0.90;;
9240;SDS011;53485;49.326;9.738;2023-05-07T12:10:39;1.50;;;0.90;;
9240;SDS011;53485;49.326;9.738;2023-05-07T12:13:03;1.00;;;1.00;;
9240;SDS011;53485;49.326;9.738;2023-05-07T12:15:30;1.75;;;1.05;;
9240;SDS011;53485;49.326;9.738;2023-05-07T12:17:57;0.90;;;0.90;;
9240;SDS011;53485;49.326;9.738;2023-05-07T12:20:24;0.95;;;0.93;;
9240;SDS011;53485;49.326;9.738;2023-05-07T12:22:51;2.78;;;1.00;;
9240;SDS011;53485;49.326;9.738;2023-05-07T12:25:19;1.60;;;1.00;;
9240;SDS011;53485;49.326;9.738;2023-05-07T12:27:45;2.90;;;1.02;;
9240;SDS011;53485;49.326;9.738;2023-05-07T12:30:12;1.58;;;1.15;;
9240;SDS011;53485;49.326;9.738;2023-05-07T12:32:39;2.03;;;1.02;;
9240;SDS011;53485;49.326;9.738;2023-05-07T12:35:07;2.62;;;1.00;;
9240;SDS011;53485;49.326;9.738;2023-05-07T12:37:34;2.37;;;0.80;;
9240;SDS011;53485;49.326;9.738;2023-05-07T12:40:06;1.58;;;1.10;;
9240;SDS011;53485;49.326;9.738;2023-05-07T12:42:35;0.80;;;0.80;;
9240;SDS011;53485;49.326;9.738;2023-05-07T12:45:00;2.08;;;0.95;;
9240;SDS011;53485;49.326;9.738;2023-05-07T12:47:26;1.00;;;0.90;;
9240;SDS011;53485;49.326;9.738;2023-05-07T12:49:54;1.00;;;0.90;;
9240;SDS011;53485;49.326;9.738;2023-05-07T12:52:21;0.90;;;0.90;;
9240;SDS011;53485;49.326;9.738;2023-05-07T12:54:48;1.23;;;0.98;;
9240;SDS011;53485;49.326;9.738;2023-05-07T12:57:15;0.90;;;0.90;;
9240;SDS011;53485;49.326;9.738;2023-05-07T12:59:42;1.05;;;0.88;;
9240;SDS011;53485;49.326;9.738;2023-05-07T13:02:09;0.80;;;0.80;;
9240;SDS011;53485;49.326;9.738;2023-05-07T13:04:36;1.27;;;1.00;;
9240;SDS011;53485;49.326;9.738;2023-05-07T13:07:03;2.35;;;1.10;;
9240;SDS011;53485;49.326;9.738;2023-05-07T13:09:30;1.60;;;0.93;;
9240;SDS011;53485;49.326;9.738;2023-05-07T13:11:57;0.90;;;0.90;;
9240;SDS011;53485;49.326;9.738;2023-05-07T13:14:24;2.35;;;1.00;;
9240;SDS011;53485;49.326;9.738;2023-05-07T13:16:51;3.40;;;1.02;;
9240;SDS011;53485;49.326;9.738;2023-05-07T13:19:18;0.90;;;0.90;;
9240;SDS011;53485;49.326;9.738;2023-05-07T13:21:45;0.90;;;0.80;;
9240;SDS011;53485;49.326;9.738;2023-05-07T13:24:13;0.90;;;0.90;;
9240;SDS011;53485;49.326;9.738;2023-05-07T13:26:40;1.20;;;1.10;;
9240;SDS011;53485;49.326;9.738;2023-05-07T13:29:07;0.82;;;0.80;;
9240;SDS011;53485;49.326;9.738;2023-05-07T13:31:34;1.87;;;0.77;;
9240;SDS011;53485;49.326;9.738;2023-05-07T13:34:01;2.12;;;0.98;;
9240;SDS011;53485;49.326;9.738;2023-05-07T13:36:29;1.08;;;0.98;;
9240;SDS011;53485;49.326;9.738;2023-05-07T13:38:56;2.40;;;0.95;;
9240;SDS011;53485;49.326;9.738;2023-05-07T13:41:23;3.03;;;0.98;;
9240;SDS011;53485;49.326;9.738;2023-05-07T13:43:50;0.85;;;0.85;;
9240;SDS011;53485;49.326;9.738;2023-05-07T13:46:17;0.75;;;0.73;;
9240;SDS011;53485;49.326;9.738;2023-05-07T13:48:44;1.02;;;0.90;;
9240;SDS011;53485;49.326;9.738;2023-05-07T13:51:11;0.80;;;0.80;;
9240;SDS011;53485;49.326;9.738;2023-05-07T13:53:38;1.00;;;0.90;;
9240;SDS011;53485;49.326;9.738;2023-05-07T13:56:05;1.77;;;1.00;;
9240;SDS011;53485;49.326;9.738;2023-05-07T13:58:32;1.45;;;1.00;;
9240;SDS011;53485;49.326;9.738;2023-05-07T14:00:59;1.12;;;1.02;;
9240;SDS011;53485;49.326;9.738;2023-05-07T14:03:26;0.90;;;0.90;;
9240;SDS011;53485;49.326;9.738;2023-05-07T14:05:53;0.83;;;0.80;;
9240;SDS011;53485;49.326;9.738;2023-05-07T14:08:19;1.47;;;1.00;;
9240;SDS011;53485;49.326;9.738;2023-05-07T14:10:46;2.37;;;1.13;;
9240;SDS011;53485;49.326;9.738;2023-05-07T14:13:13;1.30;;;0.90;;
9240;SDS011;53485;49.326;9.738;2023-05-07T14:15:40;1.60;;;1.00;;
9240;SDS011;53485;49.326;9.738;2023-05-07T14:18:06;3.77;;;1.20;;
9240;SDS011;53485;49.326;9.738;2023-05-07T14:20:33;0.90;;;0.90;;
9240;SDS011;53485;49.326;9.738;2023-05-07T14:22:59;2.00;;;0.90;;
9240;SDS011;53485;49.326;9.738;2023-05-07T14:25:26;1.20;;;1.10;;
9240;SDS011;53485;49.326;9.738;2023-05-07T14:27:53;1.20;;;1.10;;
9240;SDS011;53485;49.326;9.738;2023-05-07T14:30:19;1.10;;;1.00;;
9240;SDS011;53485;49.326;9.738;2023-05-07T14:32:46;0.80;;;0.80;;
9240;SDS011;53485;49.326;9.738;2023-05-07T14:35:12;1.33;;;0.97;;
9240;SDS011;53485;49.326;9.738;2023-05-07T14:37:39;1.27;;;0.90;;
9240;SDS011;53485;49.326;9.738;2023-05-07T14:40:06;1.97;;;0.80;;
9240;SDS011;53485;49.326;9.738;2023-05-07T14:42:33;1.80;;;1.30;;
9240;SDS011;53485;49.326;9.738;2023-05-07T14:45:00;1.63;;;0.90;;
9240;SDS011;53485;49.326;9.738;2023-05-07T14:47:26;1.33;;;0.97;;
9240;SDS011;53485;49.326;9.738;2023-05-07T14:49:53;1.97;;;0.80;;
9240;SDS011;53485;49.326;9.738;2023-05-07T14:52:19;0.93;;;0.80;;
9240;SDS011;53485;49.326;9.738;2023-05-07T14:54:45;0.80;;;0.80;;
9240;SDS011;53485;49.326;9.738;2023-05-07T14:57:13;1.03;;;0.97;;
9240;SDS011;53485;49.326;9.738;2023-05-07T14:59:39;0.80;;;0.80;;
9240;SDS011;53485;49.326;9.738;2023-05-07T15:02:05;2.17;;;0.90;;
9240;SDS011;53485;49.326;9.738;2023-05-07T15:04:31;0.90;;;0.90;;
9240;SDS011;53485;49.326;9.738;2023-05-07T15:06:58;1.20;;;1.10;;